Time;durP1;ratioP1;P1;durP2;ratioP2;P2;SDS_P1;SDS_P2;PMS_P1;PMS_P2;Temp;Humidity;BMP_temperature;BMP_pressure;BME280_temperature;BME280_humidity;BME280_pressure;Samples;Min_cycle;Max_cycle;Signal;HPM_P1;HPM_P2
2021/10/11 00:01:50;;;;;;;16.63;2.50;;;9.80;89.10;;;;;;4910768;29;20055;-84
2021/10/11 00:04:18;;;;;;;26.88;3.45;;;9.70;89.30;;;;;;4909863;29;20044;-84
2021/10/11 00:06:45;;;;;;;16.40;3.65;;;9.60;89.40;;;;;;4895416;29;20048;-84
2021/10/11 00:09:13;;;;;;;18.65;3.03;;;9.60;89.50;;;;;;4914029;29;20040;-85
2021/10/11 00:11:41;;;;;;;18.05;3.13;;;9.60;89.90;;;;;;4916079;29;20048;-84
2021/10/11 00:14:29;;;;;;;21.25;3.38;;;9.60;89.90;;;;;;4908497;29;20523;-84
2021/10/11 00:16:57;;;;;;;21.05;3.58;;;9.60;90.00;;;;;;4914608;29;20115;-84
2021/10/11 00:19:24;;;;;;;19.58;3.30;;;9.60;90.00;;;;;;4911129;29;20059;-84
2021/10/11 00:21:52;;;;;;;23.52;3.80;;;9.50;89.90;;;;;;4901088;29;20071;-85
2021/10/11 00:24:19;;;;;;;21.23;4.43;;;9.40;90.00;;;;;;4897185;29;20111;-85
2021/10/11 00:26:47;;;;;;;25.80;4.63;;;9.40;90.10;;;;;;4913929;29;20056;-84
2021/10/11 00:29:15;;;;;;;21.73;4.95;;;9.40;90.20;;;;;;4892314;29;20043;-84
2021/10/11 00:31:43;;;;;;;23.55;4.80;;;9.40;90.40;;;;;;4910896;29;20055;-85
2021/10/11 00:34:11;;;;;;;22.45;4.53;;;9.50;90.40;;;;;;4892711;29;20052;-84
2021/10/11 00:36:38;;;;;;;20.13;4.88;;;9.50;90.30;;;;;;4908629;29;20441;-84
2021/10/11 00:39:06;;;;;;;25.33;4.13;;;9.60;90.30;;;;;;4895551;29;20044;-83
2021/10/11 00:41:33;;;;;;;18.60;3.75;;;9.70;90.20;;;;;;4908859;29;20052;-83
2021/10/11 00:44:01;;;;;;;16.67;3.83;;;9.80;90.20;;;;;;4880805;29;20055;-83
2021/10/11 00:46:30;;;;;;;18.95;3.08;;;9.80;90.10;;;;;;4897095;29;20052;-84
2021/10/11 00:48:58;;;;;;;18.17;3.13;;;9.90;90.30;;;;;;4903546;29;20395;-84
2021/10/11 00:51:26;;;;;;;19.02;3.67;;;10.00;90.20;;;;;;4910987;29;20044;-84
2021/10/11 00:53:54;;;;;;;17.25;3.53;;;10.10;90.20;;;;;;4896443;29;20056;-84
2021/10/11 00:56:21;;;;;;;24.08;3.55;;;10.10;90.10;;;;;;4914557;29;20044;-84
2021/10/11 01:02:02;;;;;;;23.63;3.67;;;10.10;90.00;;;;;;5307227;23;20051;-80
2021/10/11 01:04:31;;;;;;;25.05;3.30;;;10.00;90.00;;;;;;4938871;29;20058;-81
2021/10/11 01:06:58;;;;;;;19.05;3.33;;;9.90;90.10;;;;;;4938752;29;20097;-80
2021/10/11 01:13:59;;;;;;;15.65;2.85;;;9.80;90.60;;;;;;4955323;29;20038;-79
2021/10/11 01:16:27;;;;;;;15.65;2.50;;;9.80;90.50;;;;;;4955561;29;20039;-79
2021/10/11 01:18:55;;;;;;;16.63;2.63;;;9.80;90.50;;;;;;4955054;29;20058;-80
2021/10/11 01:25:56;;;;;;;25.33;3.33;;;9.80;90.70;;;;;;4955974;29;20038;-78
2021/10/11 01:28:24;;;;;;;20.58;3.35;;;9.80;90.80;;;;;;4947320;29;20062;-78
2021/10/11 01:30:52;;;;;;;24.95;3.38;;;9.80;90.80;;;;;;4961280;28;20396;-80
2021/10/11 01:33:19;;;;;;;20.48;3.20;;;9.80;90.80;;;;;;4955122;29;20058;-78
2021/10/11 01:35:48;;;;;;;18.02;3.13;;;9.70;91.00;;;;;;4954768;29;20043;-79
2021/10/11 01:38:16;;;;;;;24.17;3.95;;;9.70;91.00;;;;;;4938273;29;20082;-79
2021/10/11 01:40:44;;;;;;;18.33;3.58;;;9.70;91.20;;;;;;4955228;29;20043;-79
2021/10/11 01:43:12;;;;;;;29.02;4.70;;;9.60;91.30;;;;;;4954783;29;20523;-79
2021/10/11 01:45:43;;;;;;;21.88;3.50;;;9.60;91.40;;;;;;4953975;29;20059;-80
2021/10/11 01:48:10;;;;;;;23.65;3.75;;;9.50;91.40;;;;;;4938415;29;20051;-79
2021/10/11 01:50:38;;;;;;;27.70;4.10;;;9.50;91.50;;;;;;4954651;29;20052;-80
2021/10/11 01:53:06;;;;;;;31.33;4.85;;;9.50;91.50;;;;;;4938374;29;20058;-81
2021/10/11 01:55:33;;;;;;;16.92;3.90;;;9.40;91.70;;;;;;4955876;29;20043;-80
2021/10/11 01:58:01;;;;;;;17.92;3.65;;;9.30;91.90;;;;;;4939118;29;20058;-79
2021/10/11 02:00:28;;;;;;;20.58;4.13;;;9.30;92.10;;;;;;4955531;29;20047;-80
2021/10/11 02:02:56;;;;;;;21.30;3.53;;;9.30;92.10;;;;;;4954373;29;20060;-80
2021/10/11 02:05:24;;;;;;;16.25;4.13;;;9.30;92.10;;;;;;4922313;29;20412;-81
2021/10/11 02:07:51;;;;;;;26.42;4.10;;;9.30;92.30;;;;;;4936946;29;20058;-79
2021/10/11 02:10:19;;;;;;;18.67;4.00;;;9.30;92.20;;;;;;4954866;28;20066;-79
2021/10/11 02:17:20;;;;;;;20.88;3.90;;;9.30;92.50;;;;;;4954644;29;20035;-80
2021/10/11 02:19:47;;;;;;;23.65;4.38;;;9.30;92.40;;;;;;4954509;28;20536;-79
2021/10/11 02:22:15;;;;;;;26.65;4.70;;;9.30;92.30;;;;;;4957633;29;20400;-80
2021/10/11 02:24:43;;;;;;;18.27;4.63;;;9.30;92.30;;;;;;4957306;29;20067;-79
2021/10/11 02:27:11;;;;;;;27.92;4.45;;;9.20;92.40;;;;;;4940907;29;20058;-78
2021/10/11 02:29:39;;;;;;;15.02;3.13;;;9.20;92.50;;;;;;4941650;29;20055;-80
2021/10/11 02:32:06;;;;;;;20.30;3.67;;;9.20;92.80;;;;;;4942879;29;20503;-79
2021/10/11 02:34:34;;;;;;;25.30;3.60;;;9.20;92.70;;;;;;4942610;29;20055;-79
2021/10/11 02:37:02;;;;;;;15.20;3.03;;;9.20;92.70;;;;;;4958040;29;20063;-79
2021/10/11 02:39:31;;;;;;;17.55;2.65;;;9.20;92.60;;;;;;4941434;29;20059;-80
2021/10/11 02:42:01;;;;;;;20.95;3.10;;;9.20;92.60;;;;;;4957674;29;20054;-79
2021/10/11 02:44:28;;;;;;;19.98;2.45;;;9.30;92.60;;;;;;4957946;29;20059;-80
2021/10/11 02:46:56;;;;;;;15.25;2.15;;;9.30;92.50;;;;;;4957668;29;20055;-79
2021/10/11 02:49:23;;;;;;;18.45;2.50;;;9.30;92.50;;;;;;4957675;29;20058;-79
2021/10/11 02:51:51;;;;;;;21.58;2.67;;;9.30;92.30;;;;;;4956149;29;20059;-79
2021/10/11 02:54:18;;;;;;;16.73;2.55;;;9.30;92.20;;;;;;4957461;29;20517;-78
2021/10/11 02:56:46;;;;;;;23.75;2.72;;;9.30;92.10;;;;;;4941138;29;20062;-79
2021/10/11 02:59:13;;;;;;;18.38;2.35;;;9.30;92.10;;;;;;4940568;29;20047;-78
2021/10/11 03:01:41;;;;;;;18.05;2.67;;;9.30;92.00;;;;;;4957275;29;20059;-79
2021/10/11 03:04:09;;;;;;;20.00;2.78;;;9.30;92.20;;;;;;4957689;29;20511;-80
2021/10/11 03:06:37;;;;;;;22.73;2.42;;;9.30;92.20;;;;;;4972188;28;20043;-79
2021/10/11 03:09:05;;;;;;;22.42;2.83;;;9.30;92.40;;;;;;4974578;28;20043;-80
2021/10/11 03:11:32;;;;;;;20.42;2.80;;;9.30;92.50;;;;;;4964550;29;20050;-79
2021/10/11 03:14:00;;;;;;;20.95;3.25;;;9.30;92.50;;;;;;4958761;29;20070;-78
2021/10/11 03:16:27;;;;;;;21.45;3.53;;;9.30;92.50;;;;;;4957772;29;20047;-78
2021/10/11 03:18:55;;;;;;;21.35;3.30;;;9.30;92.50;;;;;;4939863;29;20055;-79
2021/10/11 03:21:22;;;;;;;17.70;3.13;;;9.30;92.50;;;;;;4972118;28;20056;-79
2021/10/11 03:23:51;;;;;;;23.70;3.25;;;9.30;92.50;;;;;;4957116;29;20468;-79
2021/10/11 03:26:20;;;;;;;21.48;3.38;;;9.20;92.40;;;;;;4939795;29;20062;-79
2021/10/11 03:28:48;;;;;;;21.25;3.20;;;9.10;92.40;;;;;;4956662;29;20062;-78
2021/10/11 03:31:15;;;;;;;22.00;3.05;;;9.10;92.50;;;;;;4956283;28;20393;-80
2021/10/11 03:33:43;;;;;;;20.83;3.08;;;9.00;92.60;;;;;;4956773;29;20063;-80
2021/10/11 03:36:11;;;;;;;25.63;2.80;;;9.00;92.60;;;;;;4956722;29;20051;-80
2021/10/11 03:38:38;;;;;;;31.83;3.55;;;9.00;92.70;;;;;;4956521;29;20047;-80
2021/10/11 03:41:06;;;;;;;25.45;2.85;;;9.00;92.70;;;;;;4956569;29;20484;-79
2021/10/11 03:43:33;;;;;;;19.95;2.63;;;9.00;92.70;;;;;;4955987;29;20062;-79
2021/10/11 03:46:01;;;;;;;16.63;2.92;;;9.10;92.70;;;;;;4956461;29;20520;-80
2021/10/11 03:48:28;;;;;;;24.92;2.75;;;9.30;92.60;;;;;;4956823;28;20051;-79
2021/10/11 03:50:56;;;;;;;22.73;2.58;;;9.40;92.30;;;;;;4956359;29;20396;-79
2021/10/11 03:53:24;;;;;;;20.33;2.65;;;9.50;92.10;;;;;;4955194;29;20058;-79
2021/10/11 04:00:26;;;;;;;16.02;2.70;;;9.70;91.70;;;;;;4956201;28;20066;-79
2021/10/11 04:02:56;;;;;;;16.65;2.35;;;9.80;91.40;;;;;;4945634;29;20503;-78
2021/10/11 04:05:23;;;;;;;20.45;2.88;;;9.80;91.20;;;;;;4956129;28;20051;-79
2021/10/11 04:07:54;;;;;;;16.05;2.25;;;9.90;91.10;;;;;;4954679;29;20062;-79
2021/10/11 04:10:27;;;;;;;24.80;2.72;;;9.90;90.90;;;;;;4970775;28;20047;-79
2021/10/11 04:13:05;;;;;;;26.05;3.00;;;10.00;90.80;;;;;;4956757;28;20058;-78
2021/10/11 04:15:33;;;;;;;21.88;2.83;;;10.00;90.70;;;;;;4956120;29;20047;-79
2021/10/11 04:18:00;;;;;;;22.27;2.95;;;10.10;90.60;;;;;;4955969;28;20066;-80
2021/10/11 04:20:28;;;;;;;23.75;2.90;;;10.10;90.50;;;;;;4954900;29;20058;-80
2021/10/11 04:22:56;;;;;;;12.77;2.65;;;10.10;90.50;;;;;;4954333;29;20424;-80
2021/10/11 04:25:23;;;;;;;22.85;3.40;;;10.10;90.50;;;;;;4955135;29;20058;-78
2021/10/11 04:27:51;;;;;;;17.83;2.55;;;10.10;90.50;;;;;;4954380;29;20467;-78
2021/10/11 04:30:18;;;;;;;22.27;2.83;;;10.10;90.50;;;;;;4954467;29;20058;-79
2021/10/11 04:32:46;;;;;;;17.98;2.75;;;10.10;90.40;;;;;;4955956;29;20043;-79
2021/10/11 04:35:14;;;;;;;20.42;3.17;;;10.00;90.40;;;;;;4957330;29;20055;-79
2021/10/11 04:37:42;;;;;;;22.17;3.08;;;9.90;90.40;;;;;;4956026;29;20051;-79
2021/10/11 04:40:10;;;;;;;16.15;2.72;;;9.80;90.50;;;;;;4955965;29;20055;-79
2021/10/11 04:42:37;;;;;;;26.92;3.88;;;9.70;90.60;;;;;;4954151;28;20388;-79
2021/10/11 04:45:05;;;;;;;26.30;3.67;;;9.60;90.70;;;;;;4955448;29;20051;-79
2021/10/11 04:47:34;;;;;;;21.15;3.53;;;9.50;90.80;;;;;;4954779;28;20043;-79
2021/10/11 04:50:01;;;;;;;32.00;4.03;;;9.40;91.00;;;;;;4955428;29;20043;-79
2021/10/11 04:52:29;;;;;;;21.90;3.03;;;9.30;91.10;;;;;;4953565;29;20059;-79
2021/10/11 04:54:57;;;;;;;22.05;3.53;;;9.30;91.20;;;;;;4954733;29;20043;-78
2021/10/11 04:57:24;;;;;;;26.35;3.35;;;9.20;91.30;;;;;;4955211;29;20499;-80
2021/10/11 04:59:52;;;;;;;23.80;2.95;;;9.10;91.50;;;;;;4970126;28;20051;-80
2021/10/11 05:02:20;;;;;;;19.02;2.90;;;9.00;91.70;;;;;;4955580;29;20519;-80
2021/10/11 05:04:47;;;;;;;19.77;3.15;;;9.00;91.80;;;;;;4955668;29;20047;-79
2021/10/11 05:07:15;;;;;;;24.58;3.03;;;9.00;91.80;;;;;;4942823;29;20495;-78
2021/10/11 05:09:42;;;;;;;19.30;2.97;;;8.90;91.80;;;;;;4944839;29;20066;-79
2021/10/11 05:12:09;;;;;;;24.35;3.42;;;8.80;91.90;;;;;;4939747;29;20054;-80
2021/10/11 05:14:37;;;;;;;17.15;2.75;;;8.80;92.00;;;;;;4938487;29;20054;-79
2021/10/11 05:17:05;;;;;;;27.48;3.30;;;8.80;92.00;;;;;;4937907;29;20070;-80
2021/10/11 05:19:32;;;;;;;20.95;3.13;;;8.80;92.20;;;;;;4955436;29;20499;-80
2021/10/11 05:22:00;;;;;;;24.98;3.13;;;8.80;92.20;;;;;;4937705;29;20047;-80
2021/10/11 05:24:30;;;;;;;28.17;4.18;;;8.80;92.10;;;;;;4955365;29;20058;-80
2021/10/11 05:26:57;;;;;;;26.10;3.42;;;8.70;92.10;;;;;;4955103;29;20055;-79
2021/10/11 05:29:25;;;;;;;25.77;3.63;;;8.60;92.00;;;;;;4954512;29;20059;-80
2021/10/11 05:31:53;;;;;;;27.55;3.30;;;8.50;92.10;;;;;;4955223;29;20050;-78
2021/10/11 05:34:21;;;;;;;23.80;3.75;;;8.50;92.20;;;;;;4921707;29;20051;-79
2021/10/11 05:36:49;;;;;;;25.13;3.58;;;8.40;92.30;;;;;;4954073;29;20059;-79
2021/10/11 05:39:18;;;;;;;20.33;3.50;;;8.30;92.40;;;;;;4955702;29;20058;-80
2021/10/11 05:41:46;;;;;;;23.33;4.10;;;8.20;92.50;;;;;;4955737;29;20070;-79
2021/10/11 05:44:13;;;;;;;32.10;4.50;;;8.20;92.50;;;;;;4938301;29;20043;-80
2021/10/11 05:46:41;;;;;;;19.45;3.28;;;8.00;92.70;;;;;;4937991;29;20519;-80
2021/10/11 05:49:11;;;;;;;19.98;3.20;;;8.00;93.00;;;;;;4938451;29;20055;-79
2021/10/11 05:51:39;;;;;;;29.30;3.72;;;8.00;93.30;;;;;;4954320;29;20052;-79
2021/10/11 05:54:06;;;;;;;18.58;3.38;;;8.00;93.40;;;;;;4955192;28;20055;-80
2021/10/11 05:56:34;;;;;;;20.75;4.25;;;8.00;93.30;;;;;;4958691;29;20035;-80
2021/10/11 05:59:02;;;;;;;32.72;5.50;;;8.00;93.20;;;;;;4958530;29;20047;-79
2021/10/11 06:01:30;;;;;;;28.40;5.65;;;8.10;93.30;;;;;;4957995;29;20481;-80
2021/10/11 06:03:57;;;;;;;30.60;5.97;;;8.20;93.40;;;;;;4957876;29;20047;-79
2021/10/11 06:06:25;;;;;;;34.10;6.68;;;8.20;93.30;;;;;;4958052;29;20407;-81
2021/10/11 06:08:53;;;;;;;36.47;6.65;;;8.30;93.40;;;;;;4941525;29;20388;-80
2021/10/11 06:11:21;;;;;;;27.67;7.25;;;8.30;93.30;;;;;;4957596;29;20489;-80
2021/10/11 06:13:48;;;;;;;33.70;10.48;;;8.30;93.20;;;;;;4925340;29;20051;-85
2021/10/11 06:16:16;;;;;;;31.90;10.27;;;8.40;93.30;;;;;;4958203;29;20043;-80
2021/10/11 06:18:43;;;;;;;32.47;8.55;;;8.50;93.40;;;;;;4958120;29;20502;-80
2021/10/11 06:21:11;;;;;;;31.80;7.07;;;8.50;93.30;;;;;;4958018;29;20070;-78
2021/10/11 06:23:39;;;;;;;33.25;6.90;;;8.60;93.30;;;;;;4940764;29;20048;-78
2021/10/11 06:26:06;;;;;;;35.13;7.38;;;8.70;93.30;;;;;;4957799;29;20043;-80
2021/10/11 06:28:34;;;;;;;28.30;5.93;;;8.70;93.30;;;;;;4940698;29;20043;-79
2021/10/11 06:31:01;;;;;;;37.20;5.72;;;8.70;93.20;;;;;;4924870;29;20518;-79
2021/10/11 06:33:29;;;;;;;26.90;5.75;;;8.70;93.30;;;;;;4942100;29;20062;-78
2021/10/11 06:35:57;;;;;;;27.45;6.03;;;8.80;93.40;;;;;;4959956;29;20051;-79
2021/10/11 06:38:25;;;;;;;38.08;5.40;;;8.80;93.40;;;;;;4957192;29;20055;-79
2021/10/11 06:40:53;;;;;;;29.83;5.88;;;8.80;93.40;;;;;;4972850;28;20054;-78
2021/10/11 06:43:21;;;;;;;23.38;6.07;;;8.80;93.40;;;;;;4958083;29;20046;-79
2021/10/11 06:45:48;;;;;;;33.50;6.40;;;8.80;93.40;;;;;;4957526;29;20055;-78
2021/10/11 06:48:17;;;;;;;35.35;6.65;;;8.80;93.40;;;;;;4957980;29;20472;-79
2021/10/11 06:50:46;;;;;;;40.40;6.72;;;8.80;93.40;;;;;;4941195;29;20051;-79
2021/10/11 06:53:13;;;;;;;36.95;6.97;;;8.80;93.50;;;;;;4957539;29;20483;-79
2021/10/11 06:55:41;;;;;;;37.55;6.75;;;8.80;93.50;;;;;;4940435;29;20110;-79
2021/10/11 06:58:09;;;;;;;24.30;5.57;;;8.80;93.60;;;;;;4940638;29;20395;-79
2021/10/11 07:00:37;;;;;;;28.20;6.25;;;8.80;93.60;;;;;;4940866;29;20047;-79
2021/10/11 07:03:06;;;;;;;32.00;5.88;;;8.90;93.70;;;;;;4957269;29;20051;-78
2021/10/11 07:05:34;;;;;;;30.02;5.35;;;8.90;93.70;;;;;;4940285;28;20047;-79
2021/10/11 07:08:08;;;;;;;33.08;5.72;;;8.90;93.70;;;;;;4956257;29;20047;-79
2021/10/11 07:10:38;;;;;;;26.50;5.72;;;9.00;93.70;;;;;;4957458;29;20058;-80
2021/10/11 07:13:05;;;;;;;32.47;6.35;;;9.00;93.70;;;;;;4957548;29;20054;-81
2021/10/11 07:15:36;;;;;;;34.35;5.50;;;9.10;93.60;;;;;;4939725;29;20408;-79
2021/10/11 07:18:03;;;;;;;27.48;6.15;;;9.10;93.50;;;;;;4957346;29;20043;-80
2021/10/11 07:20:31;;;;;;;31.88;6.80;;;9.20;93.50;;;;;;4956157;29;20055;-79
2021/10/11 07:22:59;;;;;;;32.70;5.80;;;9.20;93.50;;;;;;4957055;29;20058;-77
2021/10/11 07:25:27;;;;;;;22.15;5.80;;;9.30;93.50;;;;;;4923660;29;20070;-79
2021/10/11 07:27:55;;;;;;;28.25;5.55;;;9.30;93.50;;;;;;4956382;29;20048;-80
2021/10/11 07:30:22;;;;;;;28.40;5.05;;;9.40;93.40;;;;;;4956538;29;20063;-80
2021/10/11 07:32:50;;;;;;;24.50;4.90;;;9.50;93.30;;;;;;4939384;29;20048;-78
2021/10/11 07:35:17;;;;;;;23.05;5.05;;;9.50;93.20;;;;;;4939793;29;20055;-80
2021/10/11 07:37:48;;;;;;;25.15;4.60;;;9.70;93.10;;;;;;4955948;29;20062;-79
2021/10/11 07:40:16;;;;;;;24.23;4.65;;;9.70;92.90;;;;;;4940234;29;20401;-79
2021/10/11 07:42:44;;;;;;;24.48;4.43;;;9.80;92.80;;;;;;4954804;29;20416;-79
2021/10/11 07:45:12;;;;;;;22.92;4.57;;;9.80;92.60;;;;;;4956353;29;20476;-79
2021/10/11 07:47:40;;;;;;;26.80;4.97;;;9.90;92.50;;;;;;4956932;29;20488;-79
2021/10/11 07:50:07;;;;;;;22.98;4.43;;;10.00;92.40;;;;;;4956510;29;20070;-80
2021/10/11 07:52:35;;;;;;;25.58;4.65;;;10.00;92.30;;;;;;4938813;29;20109;-79
2021/10/11 07:55:04;;;;;;;30.25;4.53;;;10.10;92.20;;;;;;4956254;29;20051;-79
2021/10/11 07:57:34;;;;;;;24.15;4.55;;;10.10;92.10;;;;;;4956648;29;20047;-79
2021/10/11 08:00:07;;;;;;;30.45;4.80;;;10.20;92.00;;;;;;4957063;29;20384;-79
2021/10/11 08:02:37;;;;;;;28.02;4.45;;;10.20;91.80;;;;;;4956027;29;20051;-79
2021/10/11 08:05:05;;;;;;;33.88;3.92;;;10.20;91.70;;;;;;4939158;29;20058;-79
2021/10/11 08:07:52;;;;;;;29.23;3.45;;;10.30;91.60;;;;;;4956269;29;20066;-79
2021/10/11 08:10:20;;;;;;;19.90;3.55;;;10.30;91.50;;;;;;4938668;29;20055;-80
2021/10/11 08:12:48;;;;;;;25.85;3.70;;;10.30;91.40;;;;;;4954947;29;20062;-79
2021/10/11 08:15:17;;;;;;;24.38;3.75;;;10.40;91.30;;;;;;4956342;29;20047;-79
2021/10/11 08:17:45;;;;;;;21.00;3.47;;;10.40;91.10;;;;;;4955835;28;20047;-79
2021/10/11 08:20:12;;;;;;;21.90;3.72;;;10.50;91.00;;;;;;4956041;29;20051;-79
2021/10/11 08:22:40;;;;;;;25.10;3.33;;;10.60;90.90;;;;;;4956707;29;20066;-78
2021/10/11 08:25:08;;;;;;;22.83;4.13;;;10.70;90.70;;;;;;4955106;29;20055;-78
2021/10/11 08:27:35;;;;;;;23.80;5.40;;;10.70;90.60;;;;;;4956700;29;20488;-78
2021/10/11 08:30:05;;;;;;;22.38;4.97;;;10.80;90.30;;;;;;4940454;29;20480;-80
2021/10/11 08:32:32;;;;;;;34.78;6.05;;;10.80;90.10;;;;;;4955879;29;20043;-80
2021/10/11 08:35:00;;;;;;;30.10;6.10;;;10.80;90.00;;;;;;4942187;29;20044;-78
2021/10/11 08:37:29;;;;;;;27.20;6.75;;;10.80;90.00;;;;;;4956428;29;20055;-78
2021/10/11 08:39:57;;;;;;;28.30;8.40;;;10.90;89.90;;;;;;4955872;29;20054;-79
2021/10/11 08:42:24;;;;;;;32.92;10.73;;;11.00;89.90;;;;;;4954985;29;20055;-78
2021/10/11 08:44:52;;;;;;;33.00;8.55;;;11.10;89.70;;;;;;4938550;29;20061;-80
2021/10/11 08:47:19;;;;;;;36.15;8.43;;;11.10;89.50;;;;;;4955809;29;20063;-79
2021/10/11 08:49:49;;;;;;;23.63;8.18;;;11.20;89.40;;;;;;4955521;29;20404;-79
2021/10/11 08:52:22;;;;;;;25.48;8.60;;;11.30;89.20;;;;;;4954806;29;20452;-79
2021/10/11 08:54:51;;;;;;;32.20;9.93;;;11.30;89.10;;;;;;4956002;29;20047;-78
2021/10/11 08:57:39;;;;;;;28.98;7.95;;;11.30;88.90;;;;;;4955448;29;20062;-78
2021/10/11 09:00:07;;;;;;;28.25;8.95;;;11.40;88.80;;;;;;4938742;29;20043;-79
2021/10/11 09:02:55;;;;;;;26.95;8.23;;;11.40;88.70;;;;;;4954804;29;20062;-79
2021/10/11 09:05:25;;;;;;;24.52;7.75;;;11.50;88.60;;;;;;4969213;28;20058;-78
2021/10/11 09:08:02;;;;;;;31.05;6.80;;;11.60;88.50;;;;;;4938275;29;20062;-79
2021/10/11 09:10:33;;;;;;;31.27;7.00;;;11.80;88.20;;;;;;4937677;29;20059;-80
2021/10/11 09:13:10;;;;;;;23.45;5.32;;;11.80;87.90;;;;;;4938369;29;20062;-79
2021/10/11 09:15:38;;;;;;;26.17;5.72;;;11.90;87.70;;;;;;4955180;29;20392;-80
2021/10/11 09:18:06;;;;;;;22.80;5.55;;;12.00;87.50;;;;;;4954947;29;20055;-80
2021/10/11 09:20:39;;;;;;;27.85;5.30;;;12.10;87.40;;;;;;4937788;29;20050;-80
2021/10/11 09:23:08;;;;;;;23.88;5.22;;;12.20;87.10;;;;;;4955492;29;20047;-80
2021/10/11 09:25:40;;;;;;;24.73;5.35;;;12.20;86.80;;;;;;4955026;29;20047;-79
2021/10/11 09:28:08;;;;;;;26.25;4.70;;;12.30;86.50;;;;;;4955169;29;20066;-78
2021/10/11 09:30:41;;;;;;;20.02;4.82;;;12.30;86.30;;;;;;4959476;28;20058;-80
2021/10/11 09:33:14;;;;;;;22.65;4.05;;;12.40;85.80;;;;;;4944612;29;20111;-79
2021/10/11 09:35:43;;;;;;;29.60;4.20;;;12.60;85.70;;;;;;4944499;29;20047;-80
2021/10/11 09:38:26;;;;;;;23.55;3.95;;;12.70;85.10;;;;;;4943983;29;20055;-79
2021/10/11 09:40:56;;;;;;;27.33;4.43;;;12.80;84.50;;;;;;4961422;28;20047;-81
2021/10/11 09:43:26;;;;;;;27.85;4.03;;;12.80;84.40;;;;;;4928006;29;20055;-80
2021/10/11 09:45:55;;;;;;;24.13;3.42;;;12.80;84.30;;;;;;4960400;29;20054;-79
2021/10/11 09:48:24;;;;;;;28.85;4.72;;;12.80;83.90;;;;;;4961066;28;20530;-80
2021/10/11 09:50:51;;;;;;;32.55;4.60;;;12.80;84.00;;;;;;4961181;29;20392;-79
2021/10/11 09:53:19;;;;;;;21.17;3.28;;;12.80;84.10;;;;;;4961378;29;20050;-79
2021/10/11 09:55:47;;;;;;;23.42;3.47;;;12.90;83.30;;;;;;4944263;28;20050;-80
2021/10/11 09:58:14;;;;;;;20.00;3.17;;;12.90;83.60;;;;;;4961548;29;20050;-78
2021/10/11 10:00:43;;;;;;;22.15;3.13;;;13.00;83.60;;;;;;4944143;29;20408;-79
2021/10/11 10:03:13;;;;;;;19.77;2.63;;;13.00;83.10;;;;;;4961076;28;20047;-82
2021/10/11 10:05:46;;;;;;;27.17;3.13;;;13.10;83.10;;;;;;4974990;28;20058;-79
2021/10/11 10:08:25;;;;;;;23.42;3.42;;;13.20;82.80;;;;;;4961863;29;20051;-79
2021/10/11 10:10:58;;;;;;;23.77;3.45;;;13.20;82.60;;;;;;4960844;29;20499;-79
2021/10/11 10:13:26;;;;;;;24.83;3.25;;;13.30;82.20;;;;;;4944404;29;20441;-79
2021/10/11 10:16:05;;;;;;;24.77;4.10;;;13.40;82.00;;;;;;4944172;29;20058;-77
2021/10/11 10:18:44;;;;;;;22.85;3.75;;;13.40;81.90;;;;;;4960839;29;20054;-81
2021/10/11 10:21:13;;;;;;;24.30;3.35;;;13.50;81.90;;;;;;4961655;28;20055;-80
2021/10/11 10:23:55;;;;;;;21.73;3.22;;;13.70;81.80;;;;;;4961210;28;20389;-79
2021/10/11 10:26:35;;;;;;;27.25;3.60;;;13.70;81.20;;;;;;4927070;29;20051;-80
2021/10/11 10:29:14;;;;;;;30.15;3.70;;;13.80;81.20;;;;;;4944623;29;20050;-78
2021/10/11 10:31:42;;;;;;;26.05;3.50;;;13.80;81.10;;;;;;4960862;29;20506;-79
2021/10/11 10:34:21;;;;;;;20.58;3.10;;;13.90;81.00;;;;;;4961221;29;20074;-79
2021/10/11 10:37:06;;;;;;;23.33;3.05;;;13.90;80.80;;;;;;4963780;28;20043;-80
2021/10/11 10:39:40;;;;;;;18.48;2.58;;;14.10;80.10;;;;;;4961658;28;20066;-79
2021/10/11 10:42:19;;;;;;;20.02;3.03;;;14.10;79.30;;;;;;4956380;28;20051;-79
2021/10/11 10:44:47;;;;;;;17.88;2.92;;;14.00;79.30;;;;;;4956275;29;20054;-79
2021/10/11 10:47:14;;;;;;;17.52;3.53;;;14.10;79.70;;;;;;4957210;29;20408;-79
2021/10/11 10:49:47;;;;;;;22.90;3.33;;;14.30;79.10;;;;;;4956858;29;20500;-79
2021/10/11 10:52:18;;;;;;;29.42;3.95;;;14.40;78.40;;;;;;4957724;29;20051;-80
2021/10/11 10:54:53;;;;;;;18.92;3.40;;;14.50;78.10;;;;;;4958009;29;20050;-79
2021/10/11 10:57:24;;;;;;;23.98;3.17;;;14.70;77.90;;;;;;4957977;29;20055;-79
2021/10/11 10:59:56;;;;;;;19.92;3.50;;;14.80;77.20;;;;;;4957316;29;20051;-79
2021/10/11 11:02:31;;;;;;;19.08;3.10;;;14.80;76.80;;;;;;4957201;29;20052;-78
2021/10/11 11:05:03;;;;;;;17.27;2.67;;;14.90;76.10;;;;;;4957805;29;20392;-79
2021/10/11 11:07:33;;;;;;;16.42;2.95;;;15.10;74.90;;;;;;4957486;29;20051;-79
2021/10/11 11:10:05;;;;;;;17.58;2.90;;;15.00;74.20;;;;;;4956845;29;20047;-79
2021/10/11 11:12:35;;;;;;;19.67;3.10;;;15.00;74.40;;;;;;4957081;29;20043;-79
2021/10/11 11:15:09;;;;;;;22.88;2.63;;;15.10;74.30;;;;;;4957892;29;20043;-80
2021/10/11 11:17:40;;;;;;;17.38;2.85;;;15.00;74.40;;;;;;4940313;29;20070;-79
2021/10/11 11:20:18;;;;;;;15.95;3.03;;;15.20;75.00;;;;;;4957607;28;20055;-80
2021/10/11 11:22:46;;;;;;;20.92;2.97;;;15.40;74.80;;;;;;4957368;29;20043;-78
2021/10/11 11:25:14;;;;;;;14.45;2.38;;;15.60;73.30;;;;;;4956772;29;20051;-80
2021/10/11 11:27:45;;;;;;;15.52;2.97;;;15.70;72.50;;;;;;4956813;29;20047;-79
2021/10/11 11:30:15;;;;;;;23.40;3.17;;;15.70;72.30;;;;;;4939634;29;20504;-79
2021/10/11 11:32:46;;;;;;;22.13;2.67;;;15.60;73.00;;;;;;4957101;29;20051;-79
2021/10/11 11:35:26;;;;;;;19.05;2.90;;;15.50;72.70;;;;;;4960229;29;20047;-78
2021/10/11 11:37:56;;;;;;;20.83;2.85;;;15.30;72.10;;;;;;4942618;29;20059;-79
2021/10/11 11:40:26;;;;;;;17.83;3.05;;;15.30;71.70;;;;;;4977476;28;20051;-79
2021/10/11 11:42:55;;;;;;;19.65;2.85;;;15.20;72.40;;;;;;4941063;29;20051;-78
2021/10/11 11:45:35;;;;;;;17.73;3.22;;;15.30;72.20;;;;;;4924037;29;20058;-79
2021/10/11 11:48:04;;;;;;;23.88;3.33;;;15.40;71.70;;;;;;4957357;29;20050;-79
2021/10/11 11:50:32;;;;;;;22.83;4.07;;;15.30;72.30;;;;;;4939501;29;20074;-80
2021/10/11 11:53:05;;;;;;;18.50;3.33;;;15.10;73.20;;;;;;4954669;28;20058;-79
2021/10/11 11:55:34;;;;;;;20.60;3.63;;;14.90;73.90;;;;;;4940216;29;20060;-79
2021/10/11 11:58:03;;;;;;;24.75;3.00;;;15.00;74.40;;;;;;4955178;29;20047;-79
2021/10/11 12:00:32;;;;;;;14.15;2.55;;;15.40;74.30;;;;;;4955837;29;20404;-78
2021/10/11 12:03:01;;;;;;;15.95;2.83;;;16.00;72.90;;;;;;4956130;29;20066;-79
2021/10/11 12:05:30;;;;;;;14.27;2.53;;;16.80;70.30;;;;;;4956295;29;20047;-79
2021/10/11 12:07:57;;;;;;;13.88;2.35;;;17.30;68.50;;;;;;4923981;29;20481;-78
2021/10/11 12:10:26;;;;;;;18.65;2.63;;;17.60;67.00;;;;;;4939134;29;20051;-78
2021/10/11 12:13:01;;;;;;;23.38;2.45;;;17.80;65.70;;;;;;4939596;29;20051;-78
2021/10/11 12:15:31;;;;;;;11.77;2.45;;;17.90;64.50;;;;;;4956461;29;20388;-79
2021/10/11 12:18:10;;;;;;;11.13;1.98;;;18.00;64.40;;;;;;4956024;29;20050;-79
2021/10/11 12:20:47;;;;;;;14.52;2.42;;;18.10;62.30;;;;;;4939145;29;20058;-79
2021/10/11 12:23:16;;;;;;;18.25;2.28;;;18.30;60.50;;;;;;4956442;29;20043;-79
2021/10/11 12:25:45;;;;;;;19.30;2.78;;;18.30;60.40;;;;;;4954882;29;20131;-79
2021/10/11 12:28:16;;;;;;;12.70;1.95;;;18.40;59.70;;;;;;4939114;29;20058;-79
2021/10/11 12:30:47;;;;;;;14.30;2.53;;;18.20;59.40;;;;;;4956619;29;20047;-78
2021/10/11 12:33:17;;;;;;;12.80;2.00;;;18.00;59.50;;;;;;4956363;29;20055;-78
2021/10/11 12:35:58;;;;;;;15.52;2.55;;;17.70;59.60;;;;;;4939796;29;20047;-79
2021/10/11 12:38:35;;;;;;;10.27;2.00;;;17.80;60.60;;;;;;4959101;29;20043;-78
2021/10/11 12:41:09;;;;;;;17.27;2.17;;;18.20;59.90;;;;;;4956512;29;20055;-79
2021/10/11 12:43:36;;;;;;;10.13;1.70;;;18.40;58.20;;;;;;4938813;29;20396;-79
2021/10/11 12:46:11;;;;;;;12.45;2.33;;;18.70;58.80;;;;;;4956157;29;20050;-79
2021/10/11 12:49:08;;;;;;;13.68;2.35;;;19.10;58.00;;;;;;4955836;29;20047;-79
2021/10/11 12:51:38;;;;;;;12.35;2.08;;;19.60;55.60;;;;;;4930636;29;20067;-79
2021/10/11 12:54:11;;;;;;;12.48;2.08;;;19.30;55.40;;;;;;4956207;29;20047;-78
2021/10/11 12:56:46;;;;;;;13.77;2.28;;;19.20;55.00;;;;;;4938301;29;20372;-79
2021/10/11 12:59:14;;;;;;;14.32;2.05;;;18.70;55.00;;;;;;4939026;29;20539;-79
2021/10/11 13:01:41;;;;;;;10.25;1.85;;;18.10;56.10;;;;;;4954753;29;20472;-78
2021/10/11 13:04:09;;;;;;;11.90;2.20;;;17.80;57.20;;;;;;4954709;28;20051;-79
2021/10/11 13:06:37;;;;;;;11.00;1.88;;;18.00;57.40;;;;;;4922077;29;20051;-78
2021/10/11 13:09:05;;;;;;;12.00;2.08;;;18.40;56.90;;;;;;4955090;29;20129;-79
2021/10/11 13:11:33;;;;;;;14.98;2.55;;;18.60;56.90;;;;;;4955559;29;20499;-78
2021/10/11 13:14:01;;;;;;;13.60;1.95;;;18.70;56.60;;;;;;4955175;28;20477;-79
2021/10/11 13:16:28;;;;;;;15.10;2.03;;;18.70;56.40;;;;;;4954976;29;20051;-78